createdAt,value
2023-02-23T00:00:10.029Z,28.30
2023-02-23T00:01:00.786Z,29.20
2023-02-23T00:01:51.557Z,25.10
2023-02-23T00:02:42.394Z,28.60
2023-02-23T00:03:33.219Z,28.00
2023-02-23T00:04:23.907Z,29.50
2023-02-23T00:05:14.693Z,27.20
2023-02-23T00:06:05.464Z,31.40
2023-02-23T00:06:56.271Z,28.10
2023-02-23T00:07:47.001Z,28.70
2023-02-23T00:08:37.793Z,29.80
2023-02-23T00:09:28.552Z,27.50
2023-02-23T00:10:19.317Z,30.30
2023-02-23T00:11:10.071Z,29.20
2023-02-23T00:12:00.827Z,30.70
2023-02-23T00:12:51.584Z,28.60
2023-02-23T00:13:42.422Z,30.30
2023-02-23T00:14:33.182Z,30.40
2023-02-23T00:15:23.932Z,33.40
2023-02-23T00:16:14.712Z,26.50
2023-02-23T00:17:05.459Z,30.10
2023-02-23T00:17:56.205Z,31.60
2023-02-23T00:18:47.020Z,29.50
2023-02-23T00:19:37.883Z,28.90
2023-02-23T00:20:28.634Z,30.30
2023-02-23T00:21:19.828Z,26.30
2023-02-23T00:22:10.096Z,29.50
2023-02-23T00:23:00.856Z,29.20
2023-02-23T00:23:51.636Z,28.10
2023-02-23T00:24:42.872Z,29.70
2023-02-23T00:25:33.181Z,29.60
2023-02-23T00:26:23.966Z,29.90
2023-02-23T00:27:14.693Z,28.70
2023-02-23T00:28:05.478Z,31.00
2023-02-23T00:28:56.255Z,30.50
2023-02-23T00:29:47.257Z,33.70
2023-02-23T00:30:38.040Z,29.80
2023-02-23T00:31:28.827Z,31.00
2023-02-23T00:32:19.753Z,28.40
2023-02-23T00:33:10.554Z,28.80
2023-02-23T00:34:01.345Z,31.90
2023-02-23T00:34:52.089Z,29.20
2023-02-23T00:35:42.844Z,30.00
2023-02-23T00:36:33.584Z,29.90
2023-02-23T00:37:24.367Z,29.60
2023-02-23T00:38:15.136Z,30.30
2023-02-23T00:39:05.923Z,27.70
2023-02-23T00:39:56.702Z,30.70
2023-02-23T00:40:47.454Z,27.20
2023-02-23T00:41:38.210Z,29.60
2023-02-23T00:42:28.973Z,31.00
2023-02-23T00:43:19.727Z,32.10
2023-02-23T00:44:10.486Z,26.80
2023-02-23T00:45:01.257Z,31.30
2023-02-23T00:45:52.045Z,28.10
2023-02-23T00:46:42.768Z,31.00
2023-02-23T00:47:33.529Z,29.20
2023-02-23T00:48:24.292Z,29.80
2023-02-23T00:49:15.083Z,30.80
2023-02-23T00:50:05.821Z,32.20
2023-02-23T00:50:56.584Z,27.80
2023-02-23T00:51:47.332Z,30.30
2023-02-23T00:52:38.086Z,29.30
2023-02-23T00:53:28.858Z,33.10
2023-02-23T00:54:19.612Z,31.20
2023-02-23T00:55:10.373Z,30.20
2023-02-23T00:56:01.136Z,26.50
2023-02-23T00:56:51.921Z,29.60
2023-02-23T00:57:42.667Z,31.50
2023-02-23T00:58:33.426Z,33.80
2023-02-23T00:59:24.204Z,29.80
2023-02-23T01:00:14.964Z,30.70
2023-02-23T01:01:05.836Z,30.00
2023-02-23T01:01:56.564Z,28.30
2023-02-23T01:02:47.316Z,29.30
2023-02-23T01:03:38.086Z,29.10
2023-02-23T01:04:28.864Z,31.20
2023-02-23T01:05:19.607Z,28.70
2023-02-23T01:06:10.365Z,31.20
2023-02-23T01:07:01.144Z,31.80
2023-02-23T01:07:51.899Z,28.40
2023-02-23T01:08:42.668Z,30.50
2023-02-23T01:09:33.426Z,33.20
2023-02-23T01:10:24.196Z,33.70
2023-02-23T01:11:14.964Z,33.10
2023-02-23T01:12:05.710Z,32.50
2023-02-23T01:12:56.478Z,29.40
2023-02-23T01:13:47.247Z,29.50
2023-02-23T01:14:38.106Z,30.10
2023-02-23T01:15:28.850Z,26.50
2023-02-23T01:16:19.610Z,29.90
2023-02-23T01:17:10.393Z,30.00
2023-02-23T01:18:01.155Z,30.00
2023-02-23T01:18:51.915Z,30.80
2023-02-23T01:19:42.716Z,30.70
2023-02-23T01:20:33.426Z,31.90
2023-02-23T01:21:24.185Z,30.10
2023-02-23T01:22:14.937Z,32.60
2023-02-23T01:23:05.693Z,30.00
2023-02-23T01:23:56.450Z,29.20
2023-02-23T01:24:47.223Z,32.40
2023-02-23T01:25:37.983Z,33.50
2023-02-23T01:26:28.737Z,30.90
2023-02-23T01:27:19.502Z,28.50
2023-02-23T01:28:10.263Z,29.70
2023-02-23T01:29:01.020Z,36.60
2023-02-23T01:29:51.776Z,34.80
2023-02-23T01:30:42.611Z,31.80
2023-02-23T01:31:33.691Z,33.40
2023-02-23T01:32:24.578Z,32.80
2023-02-23T01:33:15.302Z,31.00
2023-02-23T01:34:06.102Z,28.80
2023-02-23T01:34:56.839Z,34.10
2023-02-23T01:35:47.600Z,32.30
2023-02-23T01:36:38.352Z,30.70
2023-02-23T01:37:29.116Z,32.10
2023-02-23T01:38:19.865Z,31.40
2023-02-23T01:39:10.645Z,30.50
2023-02-23T01:40:01.392Z,34.00
2023-02-23T01:40:52.154Z,31.50
2023-02-23T01:41:42.914Z,29.90
2023-02-23T01:42:33.680Z,33.40
2023-02-23T01:43:24.437Z,33.20
2023-02-23T01:44:15.314Z,34.90
2023-02-23T01:45:06.040Z,30.60
2023-02-23T01:45:56.827Z,34.10
2023-02-23T01:46:47.574Z,32.60
2023-02-23T01:47:38.315Z,31.90
2023-02-23T01:48:29.082Z,32.00
2023-02-23T01:49:19.839Z,31.90
2023-02-23T01:50:10.742Z,32.70
2023-02-23T01:51:01.421Z,33.50
2023-02-23T01:51:52.202Z,30.90
2023-02-23T01:52:42.951Z,32.00
2023-02-23T01:53:33.713Z,30.00
2023-02-23T01:54:24.488Z,34.20
2023-02-23T01:55:15.259Z,31.80
2023-02-23T01:56:06.002Z,33.90
2023-02-23T01:56:56.755Z,36.60
2023-02-23T01:57:47.507Z,28.80
2023-02-23T01:58:38.257Z,30.30
2023-02-23T01:59:29.023Z,32.30
2023-02-23T02:00:19.784Z,31.60
2023-02-23T02:01:10.631Z,32.80
2023-02-23T02:02:01.323Z,33.80
2023-02-23T02:02:52.084Z,31.90
2023-02-23T02:03:42.844Z,31.90
2023-02-23T02:04:33.621Z,33.70
2023-02-23T02:05:24.509Z,35.40
2023-02-23T02:06:15.214Z,29.90
2023-02-23T02:07:05.975Z,34.80
2023-02-23T02:07:56.734Z,33.90
2023-02-23T02:08:47.516Z,33.40
2023-02-23T02:09:38.272Z,35.30
2023-02-23T02:10:29.048Z,32.30
2023-02-23T02:11:20.153Z,33.80
2023-02-23T02:12:10.480Z,33.50
2023-02-23T02:13:01.267Z,33.90
2023-02-23T02:13:52.054Z,31.30
2023-02-23T02:14:42.813Z,29.90
2023-02-23T02:15:33.582Z,31.50
2023-02-23T02:16:24.332Z,35.20
2023-02-23T02:17:15.090Z,37.00
2023-02-23T02:18:05.852Z,31.20
2023-02-23T02:18:56.622Z,31.10
2023-02-23T02:19:47.388Z,32.40
2023-02-23T02:20:38.331Z,33.90
2023-02-23T02:21:29.010Z,33.80
2023-02-23T02:22:19.774Z,35.80
2023-02-23T02:23:10.538Z,31.80
2023-02-23T02:24:01.280Z,36.70
2023-02-23T02:24:52.078Z,32.10
2023-02-23T02:25:42.828Z,32.90
2023-02-23T02:26:33.601Z,34.80
2023-02-23T02:27:24.349Z,33.40
2023-02-23T02:28:15.112Z,31.90
2023-02-23T02:29:05.878Z,32.90
2023-02-23T02:29:56.838Z,34.50
2023-02-23T02:30:47.644Z,32.60
2023-02-23T02:31:38.485Z,32.90
2023-02-23T02:32:29.295Z,35.00
2023-02-23T02:33:20.028Z,31.90
2023-02-23T02:34:10.780Z,37.40
2023-02-23T02:35:01.551Z,31.10
2023-02-23T02:35:52.328Z,34.50
2023-02-23T02:36:43.073Z,30.20
2023-02-23T02:37:33.834Z,32.20
2023-02-23T02:38:24.590Z,33.90
2023-02-23T02:39:15.363Z,35.30
2023-02-23T02:40:06.119Z,36.20
2023-02-23T02:40:56.882Z,33.90
2023-02-23T02:41:47.654Z,32.00
2023-02-23T02:42:38.395Z,31.50
2023-02-23T02:43:29.167Z,32.50
2023-02-23T02:44:19.926Z,36.10
2023-02-23T02:45:10.703Z,33.60
2023-02-23T02:46:01.495Z,32.90
2023-02-23T02:46:52.210Z,33.10
2023-02-23T02:47:42.969Z,34.70
2023-02-23T02:48:33.728Z,35.20
2023-02-23T02:49:24.509Z,36.60
2023-02-23T02:50:15.266Z,34.30
2023-02-23T02:51:06.066Z,35.90
2023-02-23T02:51:56.797Z,34.80
2023-02-23T02:52:47.569Z,36.40
2023-02-23T02:53:38.325Z,33.90
2023-02-23T02:54:29.080Z,32.60
2023-02-23T02:55:19.841Z,36.30
2023-02-23T02:56:10.589Z,39.10
2023-02-23T02:57:01.336Z,36.20
2023-02-23T02:57:52.105Z,35.70
2023-02-23T02:58:42.860Z,35.70
2023-02-23T02:59:33.642Z,36.30
2023-02-23T03:00:24.396Z,35.60
2023-02-23T03:01:15.188Z,35.00
2023-02-23T03:02:05.912Z,37.00
2023-02-23T03:02:56.678Z,35.60
2023-02-23T03:03:47.418Z,35.40
2023-02-23T03:04:38.187Z,35.00
2023-02-23T03:05:29.089Z,36.40
2023-02-23T03:06:19.904Z,34.30
2023-02-23T03:07:10.665Z,34.40
2023-02-23T03:08:01.431Z,34.80
2023-02-23T03:08:52.196Z,34.70
2023-02-23T03:09:42.943Z,37.90
2023-02-23T03:10:33.712Z,39.20
2023-02-23T03:11:24.497Z,39.30
2023-02-23T03:12:15.228Z,39.00
2023-02-23T03:13:05.996Z,38.30
2023-02-23T03:13:56.738Z,39.60
2023-02-23T03:14:47.510Z,36.40
2023-02-23T03:15:38.274Z,39.20
2023-02-23T03:16:29.029Z,38.10
2023-02-23T03:17:19.792Z,40.50
2023-02-23T03:18:10.546Z,38.50
2023-02-23T03:19:01.316Z,37.10
2023-02-23T03:19:52.116Z,38.40
2023-02-23T03:20:42.876Z,38.00
2023-02-23T03:21:33.661Z,37.00
2023-02-23T03:22:24.402Z,39.80
2023-02-23T03:23:15.170Z,36.10
2023-02-23T03:24:05.933Z,39.10
2023-02-23T03:24:56.704Z,38.50
2023-02-23T03:25:47.461Z,39.90
2023-02-23T03:26:38.244Z,35.90
2023-02-23T03:27:28.982Z,39.30
2023-02-23T03:28:19.735Z,40.50
2023-02-23T03:29:10.502Z,39.20
2023-02-23T03:30:01.244Z,38.10
2023-02-23T03:30:52.075Z,38.20
2023-02-23T03:31:42.861Z,36.60
2023-02-23T03:32:33.677Z,40.60
2023-02-23T03:33:24.384Z,40.80
2023-02-23T03:34:15.156Z,38.90
2023-02-23T03:35:05.939Z,36.70
2023-02-23T03:35:56.703Z,39.50
2023-02-23T03:36:47.484Z,39.40
2023-02-23T03:37:38.225Z,37.90
2023-02-23T03:38:28.986Z,38.50
2023-02-23T03:39:19.746Z,44.00
2023-02-23T03:40:10.559Z,40.50
2023-02-23T03:41:01.259Z,37.00
2023-02-23T03:41:52.016Z,38.40
2023-02-23T03:42:42.784Z,36.80
2023-02-23T03:43:33.547Z,37.90
2023-02-23T03:44:24.327Z,38.80
2023-02-23T03:45:15.082Z,41.00
2023-02-23T03:46:05.834Z,37.60
2023-02-23T03:46:56.602Z,39.40
2023-02-23T03:47:47.350Z,38.20
2023-02-23T03:48:38.115Z,40.30
2023-02-23T03:49:28.877Z,41.40
2023-02-23T03:50:19.626Z,38.80
2023-02-23T03:51:10.386Z,36.50
2023-02-23T03:52:01.173Z,42.80
2023-02-23T03:52:51.901Z,44.60
2023-02-23T03:53:42.661Z,42.80
2023-02-23T03:54:33.415Z,41.50
2023-02-23T03:55:24.186Z,38.50
2023-02-23T03:56:14.939Z,39.10
2023-02-23T03:57:05.697Z,38.00
2023-02-23T03:57:56.437Z,39.80
2023-02-23T03:58:47.198Z,39.70
2023-02-23T03:59:37.972Z,37.70
2023-02-23T04:00:28.750Z,39.20
2023-02-23T04:01:19.816Z,38.50
2023-02-23T04:02:10.738Z,39.20
2023-02-23T04:03:01.460Z,38.30
2023-02-23T04:03:52.349Z,40.90
2023-02-23T04:04:43.072Z,36.60
2023-02-23T04:05:33.852Z,37.40
2023-02-23T04:06:24.593Z,41.40
2023-02-23T04:07:15.372Z,40.60
2023-02-23T04:08:06.114Z,40.70
2023-02-23T04:08:56.883Z,39.60
2023-02-23T04:09:47.623Z,39.40
2023-02-23T04:10:38.386Z,41.40
2023-02-23T04:11:29.140Z,42.20
2023-02-23T04:12:19.909Z,41.80
2023-02-23T04:13:10.907Z,37.20
2023-02-23T04:14:01.658Z,39.50
2023-02-23T04:14:52.430Z,40.40
2023-02-23T04:15:43.194Z,38.50
2023-02-23T04:16:33.979Z,40.90
2023-02-23T04:17:24.710Z,41.00
2023-02-23T04:18:15.492Z,42.80
2023-02-23T04:19:06.252Z,41.80
2023-02-23T04:19:57.018Z,39.90
2023-02-23T04:20:47.952Z,38.80
2023-02-23T04:21:38.678Z,42.40
2023-02-23T04:22:29.547Z,39.20
2023-02-23T04:23:20.236Z,44.30
2023-02-23T04:24:10.996Z,37.60
2023-02-23T04:25:01.776Z,38.60
2023-02-23T04:25:52.518Z,41.00
2023-02-23T04:26:43.291Z,41.90
2023-02-23T04:27:34.061Z,39.50
2023-02-23T04:28:24.799Z,37.70
2023-02-23T04:29:15.563Z,40.30
2023-02-23T04:30:06.332Z,38.00
2023-02-23T04:30:57.178Z,39.90
2023-02-23T04:31:47.909Z,39.30
2023-02-23T04:32:38.796Z,44.50
2023-02-23T04:33:29.573Z,45.50
2023-02-23T04:34:20.320Z,46.80
2023-02-23T04:35:11.121Z,42.70
2023-02-23T04:36:01.859Z,41.90
2023-02-23T04:36:52.610Z,39.70
2023-02-23T04:37:43.409Z,38.20
2023-02-23T04:38:34.147Z,42.60
2023-02-23T04:39:24.919Z,38.10
2023-02-23T04:40:15.696Z,37.90
2023-02-23T04:41:06.645Z,39.30
2023-02-23T04:41:57.399Z,41.60
2023-02-23T04:42:48.154Z,45.60
2023-02-23T04:43:38.922Z,42.60
2023-02-23T04:44:29.693Z,41.10
2023-02-23T04:45:20.430Z,37.70
2023-02-23T04:46:11.228Z,41.30
2023-02-23T04:47:01.950Z,39.60
2023-02-23T04:47:52.712Z,42.60
2023-02-23T04:48:43.468Z,41.10
2023-02-23T04:49:34.218Z,44.10
2023-02-23T04:50:24.980Z,40.20
2023-02-23T04:51:15.747Z,36.90
2023-02-23T04:52:06.505Z,41.70
2023-02-23T04:52:57.287Z,39.60
2023-02-23T04:53:48.020Z,42.70
2023-02-23T04:54:38.776Z,41.30
2023-02-23T04:55:29.543Z,41.60
2023-02-23T04:56:20.323Z,42.10
2023-02-23T04:57:11.161Z,42.80
2023-02-23T04:58:01.935Z,160.60
2023-02-23T04:58:52.682Z,70.00
2023-02-23T04:59:43.462Z,43.30
2023-02-23T05:00:34.340Z,45.20
2023-02-23T05:01:25.050Z,44.50
2023-02-23T05:02:15.779Z,41.10
2023-02-23T05:03:06.540Z,38.20
2023-02-23T05:03:57.297Z,38.90
2023-02-23T05:04:48.079Z,39.60
2023-02-23T05:05:38.829Z,43.40
2023-02-23T05:06:29.585Z,43.00
2023-02-23T05:07:20.341Z,40.00
2023-02-23T05:08:11.130Z,42.10
2023-02-23T05:09:01.869Z,77.20
2023-02-23T05:09:52.633Z,190.60
2023-02-23T05:10:43.386Z,173.00
2023-02-23T05:11:34.134Z,148.10
2023-02-23T05:12:24.893Z,78.60
2023-02-23T05:13:15.675Z,43.90
2023-02-23T05:14:06.455Z,39.60
2023-02-23T05:14:57.226Z,41.00
2023-02-23T05:15:48.008Z,40.20
2023-02-23T05:16:38.735Z,42.80
2023-02-23T05:17:29.493Z,42.70
2023-02-23T05:18:20.267Z,106.30
2023-02-23T05:19:11.030Z,49.50
2023-02-23T05:20:01.821Z,43.20
2023-02-23T05:20:52.561Z,42.90
2023-02-23T05:21:43.323Z,41.00
2023-02-23T05:22:34.083Z,39.80
2023-02-23T05:23:24.875Z,42.50
2023-02-23T05:24:15.594Z,42.40
2023-02-23T05:25:06.369Z,42.80
2023-02-23T05:25:58.149Z,47.40
2023-02-23T05:26:48.252Z,44.10
2023-02-23T05:27:39.019Z,40.20
2023-02-23T05:28:29.775Z,42.20
2023-02-23T05:29:20.526Z,44.40
2023-02-23T05:30:11.293Z,45.00
2023-02-23T05:31:02.165Z,42.90
2023-02-23T05:31:53.274Z,46.10
2023-02-23T05:32:44.005Z,43.40
2023-02-23T05:33:34.791Z,44.50
2023-02-23T05:34:25.572Z,42.80
2023-02-23T05:35:16.333Z,42.10
2023-02-23T05:36:07.106Z,46.40
2023-02-23T05:36:57.871Z,52.10
2023-02-23T05:37:48.646Z,45.30
2023-02-23T05:38:39.425Z,47.60
2023-02-23T05:39:30.158Z,48.40
2023-02-23T05:40:20.934Z,44.30
2023-02-23T05:41:11.708Z,43.60
2023-02-23T05:42:02.469Z,47.90
2023-02-23T05:42:53.240Z,46.60
2023-02-23T05:43:43.994Z,47.80
2023-02-23T05:44:34.761Z,45.70
2023-02-23T05:45:25.520Z,47.20
2023-02-23T05:46:16.316Z,47.50
2023-02-23T05:47:07.066Z,45.00
2023-02-23T05:47:57.800Z,47.20
2023-02-23T05:48:48.553Z,50.10
2023-02-23T05:49:39.318Z,48.20
2023-02-23T05:50:30.080Z,43.30
2023-02-23T05:51:21.248Z,46.20
2023-02-23T05:52:12.167Z,50.50
2023-02-23T05:53:02.931Z,49.10
2023-02-23T05:53:53.756Z,45.60
2023-02-23T05:54:44.511Z,48.30
2023-02-23T05:55:35.286Z,45.30
2023-02-23T05:56:26.077Z,46.40
2023-02-23T05:57:16.850Z,47.10
2023-02-23T05:58:07.572Z,48.50
2023-02-23T05:58:58.532Z,49.60
2023-02-23T05:59:49.307Z,50.10
2023-02-23T06:00:40.074Z,49.10
2023-02-23T06:01:30.834Z,46.00
2023-02-23T06:02:21.754Z,47.50
2023-02-23T06:03:12.632Z,49.00
2023-02-23T06:04:05.284Z,51.60
2023-02-23T06:04:54.282Z,49.30
2023-02-23T06:05:45.086Z,44.80
2023-02-23T06:06:35.992Z,46.70
2023-02-23T06:07:26.857Z,48.90
2023-02-23T06:08:17.734Z,53.80
2023-02-23T06:09:08.627Z,45.70
2023-02-23T06:09:59.494Z,50.50
2023-02-23T06:10:50.364Z,47.90
2023-02-23T06:11:41.239Z,45.50
2023-02-23T06:12:32.103Z,46.90
2023-02-23T06:13:22.963Z,49.30
2023-02-23T06:14:13.830Z,46.40
2023-02-23T06:15:04.730Z,46.00
2023-02-23T06:15:55.688Z,46.30
2023-02-23T06:16:46.521Z,47.50
2023-02-23T06:17:37.375Z,44.20
2023-02-23T06:18:28.246Z,46.70
2023-02-23T06:19:19.139Z,46.80
2023-02-23T06:20:10.018Z,46.80
2023-02-23T06:21:00.900Z,49.10
2023-02-23T06:21:51.762Z,45.60
2023-02-23T06:22:42.647Z,50.70
2023-02-23T06:23:33.610Z,48.50
2023-02-23T06:24:24.600Z,48.80
2023-02-23T06:25:15.402Z,45.70
2023-02-23T06:26:06.285Z,47.40
2023-02-23T06:26:57.167Z,47.60
2023-02-23T06:27:48.049Z,50.00
2023-02-23T06:28:38.952Z,48.30
2023-02-23T06:29:29.835Z,43.00
2023-02-23T06:30:20.726Z,44.60
2023-02-23T06:31:11.755Z,45.10
2023-02-23T06:32:02.741Z,46.50
2023-02-23T06:32:53.608Z,50.30
2023-02-23T06:33:44.515Z,52.00
2023-02-23T06:34:35.385Z,49.00
2023-02-23T06:35:26.265Z,49.50
2023-02-23T06:36:17.136Z,46.30
2023-02-23T06:37:09.299Z,50.80
2023-02-23T06:37:59.037Z,45.80
2023-02-23T06:38:49.928Z,47.80
2023-02-23T06:39:40.835Z,48.20
2023-02-23T06:40:31.695Z,46.90
2023-02-23T06:41:22.573Z,45.40
2023-02-23T06:42:13.443Z,45.70
2023-02-23T06:43:04.345Z,53.60
2023-02-23T06:43:55.209Z,50.20
2023-02-23T06:44:46.101Z,48.70
2023-02-23T06:45:36.976Z,49.90
2023-02-23T06:46:27.900Z,47.90
2023-02-23T06:47:18.742Z,48.90
2023-02-23T06:48:09.632Z,45.50
2023-02-23T06:49:00.531Z,45.90
2023-02-23T06:49:51.419Z,50.50
2023-02-23T06:50:42.340Z,46.10
2023-02-23T06:51:33.200Z,48.10
2023-02-23T06:52:24.093Z,53.70
2023-02-23T06:53:15.558Z,48.10
2023-02-23T06:54:05.829Z,51.10
2023-02-23T06:54:56.735Z,55.40
2023-02-23T06:55:47.609Z,49.10
2023-02-23T06:56:38.494Z,53.60
2023-02-23T06:57:29.374Z,51.80
2023-02-23T06:58:20.249Z,50.30
2023-02-23T06:59:11.136Z,59.10
2023-02-23T07:00:02.027Z,54.60
2023-02-23T07:00:52.891Z,53.70
2023-02-23T07:01:43.786Z,55.70
2023-02-23T07:02:34.654Z,55.90
2023-02-23T07:03:25.556Z,50.00
2023-02-23T07:04:17.024Z,59.30
2023-02-23T07:05:07.295Z,59.20
2023-02-23T07:05:58.191Z,60.40
2023-02-23T07:06:49.056Z,58.30
2023-02-23T07:07:39.949Z,56.90
2023-02-23T07:08:30.823Z,60.60
2023-02-23T07:09:21.715Z,62.30
2023-02-23T07:10:12.645Z,67.30
2023-02-23T07:11:03.482Z,64.60
2023-02-23T07:11:54.371Z,65.80
2023-02-23T07:12:45.259Z,63.50
2023-02-23T07:13:36.123Z,64.50
2023-02-23T07:14:27.450Z,64.80
2023-02-23T07:15:17.714Z,70.30
2023-02-23T07:16:08.613Z,68.40
2023-02-23T07:16:59.475Z,66.30
2023-02-23T07:17:50.358Z,68.30
2023-02-23T07:18:41.229Z,62.90
2023-02-23T07:19:32.130Z,63.60
2023-02-23T07:20:23.034Z,62.60
2023-02-23T07:21:13.923Z,66.70
2023-02-23T07:22:04.823Z,68.20
2023-02-23T07:22:55.713Z,68.60
2023-02-23T07:23:46.599Z,61.30
2023-02-23T07:24:37.488Z,73.10
2023-02-23T07:25:28.392Z,74.20
2023-02-23T07:26:19.266Z,67.80
2023-02-23T07:27:10.148Z,67.80
2023-02-23T07:28:01.042Z,64.70
2023-02-23T07:28:54.142Z,70.30
2023-02-23T07:29:42.654Z,67.20
2023-02-23T07:30:33.565Z,71.40
2023-02-23T07:31:24.468Z,70.90
2023-02-23T07:32:15.366Z,68.30
2023-02-23T07:33:06.216Z,67.00
2023-02-23T07:33:57.116Z,68.50
2023-02-23T07:34:48.050Z,68.70
2023-02-23T07:35:38.920Z,70.20
2023-02-23T07:36:29.813Z,69.70
2023-02-23T07:37:20.709Z,71.30
2023-02-23T07:38:11.611Z,70.90
2023-02-23T07:39:02.506Z,66.10
2023-02-23T07:39:53.414Z,63.50
2023-02-23T07:40:44.338Z,70.10
2023-02-23T07:41:35.219Z,67.50
2023-02-23T07:42:26.156Z,68.20
2023-02-23T07:43:17.035Z,70.10
2023-02-23T07:44:07.953Z,74.80
2023-02-23T07:44:58.856Z,69.20
2023-02-23T07:45:49.789Z,71.00
2023-02-23T07:46:40.667Z,72.40
2023-02-23T07:47:31.560Z,70.70
2023-02-23T07:48:22.465Z,71.50
2023-02-23T07:49:13.367Z,73.70
2023-02-23T07:50:04.268Z,69.70
2023-02-23T07:50:55.165Z,75.20
2023-02-23T07:51:46.077Z,72.00
2023-02-23T07:52:36.954Z,73.60
2023-02-23T07:53:27.883Z,76.90
2023-02-23T07:54:18.738Z,79.40
2023-02-23T07:55:09.647Z,86.20
2023-02-23T07:56:00.570Z,79.20
2023-02-23T07:56:51.438Z,80.00
2023-02-23T07:57:42.330Z,77.80
2023-02-23T07:58:33.223Z,73.10
2023-02-23T07:59:24.141Z,79.50
2023-02-23T08:00:15.030Z,82.50
2023-02-23T08:01:05.932Z,83.10
2023-02-23T08:01:56.834Z,81.00
2023-02-23T08:02:47.736Z,79.50
2023-02-23T08:03:38.636Z,82.10
2023-02-23T08:04:29.552Z,85.60
2023-02-23T08:05:20.448Z,78.90
2023-02-23T08:06:11.339Z,80.10
2023-02-23T08:07:02.239Z,82.60
2023-02-23T08:07:53.140Z,79.50
2023-02-23T08:08:44.037Z,80.70
2023-02-23T08:09:34.947Z,79.90
2023-02-23T08:10:25.843Z,86.40
2023-02-23T08:11:17.215Z,78.60
2023-02-23T08:12:07.646Z,84.70
2023-02-23T08:12:58.616Z,80.30
2023-02-23T08:13:49.434Z,76.90
2023-02-23T08:14:40.331Z,80.20
2023-02-23T08:15:31.235Z,86.70
2023-02-23T08:16:22.186Z,87.00
2023-02-23T08:17:13.041Z,88.20
2023-02-23T08:18:03.959Z,90.80
2023-02-23T08:18:54.850Z,90.50
2023-02-23T08:19:45.775Z,87.10
2023-02-23T08:20:36.685Z,81.40
2023-02-23T08:21:27.614Z,95.70
2023-02-23T08:22:18.466Z,90.50
2023-02-23T08:23:09.362Z,87.30
2023-02-23T08:24:00.258Z,90.90
2023-02-23T08:24:51.144Z,91.10
2023-02-23T08:25:42.040Z,90.70
2023-02-23T08:26:33.151Z,93.40
2023-02-23T08:27:23.986Z,91.40
2023-02-23T08:28:14.877Z,93.50
2023-02-23T08:29:05.776Z,91.10
2023-02-23T08:29:56.738Z,87.60
2023-02-23T08:30:47.711Z,95.60
2023-02-23T08:31:38.729Z,95.50
2023-02-23T08:32:29.620Z,89.60
2023-02-23T08:33:20.569Z,89.70
2023-02-23T08:34:11.477Z,89.70
2023-02-23T08:35:02.374Z,91.20
2023-02-23T08:35:53.283Z,94.00
2023-02-23T08:36:45.700Z,83.90
2023-02-23T08:37:35.296Z,89.40
2023-02-23T08:38:26.224Z,88.20
2023-02-23T08:39:17.160Z,93.50
2023-02-23T08:40:08.102Z,91.30
2023-02-23T08:40:59.001Z,89.00
2023-02-23T08:41:49.934Z,90.30
2023-02-23T08:42:40.835Z,92.80
2023-02-23T08:43:31.725Z,85.20
2023-02-23T08:44:22.640Z,84.00
2023-02-23T08:45:13.566Z,89.80
2023-02-23T08:46:04.492Z,89.30
2023-02-23T08:46:55.393Z,78.90
2023-02-23T08:47:46.295Z,84.80
2023-02-23T08:48:37.242Z,88.10
2023-02-23T08:49:28.157Z,83.80
2023-02-23T08:50:19.074Z,86.50
2023-02-23T08:51:09.977Z,86.60
2023-02-23T08:52:00.916Z,83.20
2023-02-23T08:52:51.826Z,84.70
2023-02-23T08:53:42.735Z,85.20
2023-02-23T08:54:33.646Z,88.70
2023-02-23T08:55:24.579Z,83.40
2023-02-23T08:56:15.507Z,83.40
2023-02-23T08:57:06.475Z,79.00
2023-02-23T08:57:57.314Z,77.00
2023-02-23T08:58:48.222Z,76.90
2023-02-23T08:59:39.151Z,82.80
2023-02-23T09:00:30.187Z,71.70
2023-02-23T09:01:21.487Z,72.80
2023-02-23T09:02:11.842Z,75.90
2023-02-23T09:03:02.734Z,77.00
2023-02-23T09:03:53.635Z,78.20
2023-02-23T09:04:44.559Z,77.80
2023-02-23T09:05:35.565Z,72.70
2023-02-23T09:06:26.453Z,69.00
2023-02-23T09:07:17.370Z,71.60
2023-02-23T09:08:08.289Z,73.70
2023-02-23T09:08:59.219Z,70.10
2023-02-23T09:09:50.122Z,69.50
2023-02-23T09:10:41.038Z,67.20
2023-02-23T09:11:31.964Z,65.90
2023-02-23T09:12:22.905Z,67.10
2023-02-23T09:13:13.833Z,70.00
2023-02-23T09:14:04.699Z,66.90
2023-02-23T09:14:55.636Z,63.90
2023-02-23T09:15:46.576Z,65.90
2023-02-23T09:16:37.462Z,65.80
2023-02-23T09:17:28.390Z,65.00
2023-02-23T09:18:19.266Z,62.00
2023-02-23T09:19:10.172Z,64.20
2023-02-23T09:20:01.104Z,61.80
2023-02-23T09:20:51.997Z,62.80
2023-02-23T09:21:42.912Z,62.20
2023-02-23T09:22:35.349Z,58.20
2023-02-23T09:23:24.492Z,58.70
2023-02-23T09:24:15.402Z,65.60
2023-02-23T09:25:06.311Z,60.80
2023-02-23T09:25:57.224Z,60.00
2023-02-23T09:26:48.145Z,63.60
2023-02-23T09:27:39.138Z,61.50
2023-02-23T09:28:31.043Z,57.10
2023-02-23T09:29:20.743Z,56.80
2023-02-23T09:30:11.651Z,57.10
2023-02-23T09:31:02.707Z,58.30
2023-02-23T09:31:53.722Z,60.70
2023-02-23T09:32:44.722Z,57.00
2023-02-23T09:33:35.584Z,54.40
2023-02-23T09:34:26.493Z,59.60
2023-02-23T09:35:17.403Z,55.70
2023-02-23T09:36:08.322Z,53.60
2023-02-23T09:36:59.223Z,56.00
2023-02-23T09:37:50.142Z,58.10
2023-02-23T09:38:41.072Z,58.50
2023-02-23T09:39:38.129Z,53.00
2023-02-23T09:40:23.910Z,56.30
2023-02-23T09:41:13.593Z,55.10
2023-02-23T09:42:04.509Z,51.60
2023-02-23T09:42:55.457Z,56.10
2023-02-23T09:43:46.347Z,57.20
2023-02-23T09:44:37.260Z,57.10
2023-02-23T09:45:28.176Z,64.60
2023-02-23T09:46:19.110Z,60.80
2023-02-23T09:47:11.557Z,68.50
2023-02-23T09:48:00.696Z,72.90
2023-02-23T09:48:51.599Z,72.40
2023-02-23T09:49:42.512Z,72.90
2023-02-23T09:50:33.427Z,75.70
2023-02-23T09:51:24.359Z,77.80
2023-02-23T09:52:15.628Z,83.30
2023-02-23T09:53:06.077Z,85.10
2023-02-23T09:53:57.041Z,94.30
2023-02-23T09:54:47.945Z,102.00
2023-02-23T09:55:38.867Z,112.30
2023-02-23T09:56:29.775Z,116.10
2023-02-23T09:57:20.696Z,123.30
2023-02-23T09:58:11.622Z,118.90
2023-02-23T09:59:02.536Z,126.20
2023-02-23T09:59:53.467Z,115.00
2023-02-23T10:00:44.367Z,125.20
2023-02-23T10:01:35.306Z,124.60
2023-02-23T10:02:26.197Z,120.20
2023-02-23T10:03:17.112Z,130.20
2023-02-23T10:04:08.034Z,139.90
2023-02-23T10:04:58.962Z,132.60
2023-02-23T10:05:49.896Z,133.50
2023-02-23T10:06:40.756Z,133.90
2023-02-23T10:07:31.665Z,130.50
2023-02-23T10:08:22.581Z,130.00
2023-02-23T10:09:13.491Z,130.50
2023-02-23T10:10:04.537Z,129.80
2023-02-23T10:10:55.429Z,132.00
2023-02-23T10:11:46.358Z,127.90
2023-02-23T10:12:37.235Z,138.00
2023-02-23T10:13:28.178Z,132.30
2023-02-23T10:14:19.067Z,135.50
2023-02-23T10:15:09.989Z,129.50
2023-02-23T10:16:01.008Z,120.80
2023-02-23T10:16:51.865Z,132.70
2023-02-23T10:17:42.782Z,127.40
2023-02-23T10:18:46.011Z,133.50
2023-02-23T10:19:25.610Z,128.10
2023-02-23T10:20:15.286Z,131.90
2023-02-23T10:21:06.206Z,127.00
2023-02-23T10:21:57.110Z,127.00
2023-02-23T10:22:48.018Z,129.50
2023-02-23T10:23:38.927Z,126.70
2023-02-23T10:24:29.840Z,126.30
2023-02-23T10:25:20.756Z,129.60
2023-02-23T10:26:11.665Z,126.20
2023-02-23T10:27:02.581Z,126.60
2023-02-23T10:27:53.513Z,124.70
2023-02-23T10:28:46.342Z,129.10
2023-02-23T10:29:35.257Z,125.80
2023-02-23T10:30:26.225Z,128.10
2023-02-23T10:31:17.436Z,129.90
2023-02-23T10:32:07.977Z,125.60
2023-02-23T10:32:58.900Z,131.50
2023-02-23T10:33:49.796Z,118.90
2023-02-23T10:34:40.705Z,125.20
2023-02-23T10:35:31.636Z,121.70
2023-02-23T10:36:22.537Z,119.30
2023-02-23T10:37:13.440Z,119.60
2023-02-23T10:38:04.349Z,120.00
2023-02-23T10:38:55.244Z,122.90
2023-02-23T10:39:46.157Z,120.80
2023-02-23T10:40:37.084Z,111.80
2023-02-23T10:41:28.004Z,108.50
2023-02-23T10:42:18.917Z,114.20
2023-02-23T10:43:09.815Z,112.10
2023-02-23T10:44:15.402Z,112.60
2023-02-23T10:44:52.631Z,115.20
2023-02-23T10:45:42.341Z,113.50
2023-02-23T10:46:33.437Z,114.50
2023-02-23T10:47:24.322Z,109.90
2023-02-23T10:48:15.232Z,112.80
2023-02-23T10:49:06.112Z,111.10
2023-02-23T10:49:57.029Z,117.10
2023-02-23T10:50:47.952Z,115.50
2023-02-23T10:51:38.850Z,108.70
2023-02-23T10:52:31.657Z,106.20